createdAt,value
2019-04-23T00:02:18.473Z,61.30
2019-04-23T00:04:47.911Z,61.50
2019-04-23T00:07:39.744Z,62.10
2019-04-23T00:09:56.891Z,62.60
2019-04-23T00:12:38.475Z,62.60
2019-04-23T00:15:04.893Z,62.90
2019-04-23T00:20:03.714Z,63.60
2019-04-23T00:23:00.235Z,63.70
2019-04-23T00:26:16.206Z,63.90
2019-04-23T00:28:35.359Z,64.40
2019-04-23T00:31:20.853Z,64.80
2019-04-23T00:33:30.339Z,65.10
2019-04-23T00:35:55.250Z,65.50
2019-04-23T00:38:41.778Z,65.70
2019-04-23T00:41:02.748Z,66.40
2019-04-23T00:43:40.999Z,67.00
2019-04-23T00:46:00.434Z,67.70
2019-04-23T00:48:42.784Z,67.50
2019-04-23T00:51:02.277Z,67.50
2019-04-23T00:53:32.742Z,68.30
2019-04-23T00:56:25.270Z,69.00
2019-04-23T00:58:41.542Z,69.70
2019-04-23T01:01:12.499Z,70.40
2019-04-23T01:03:47.017Z,70.30
2019-04-23T01:06:16.018Z,71.70
2019-04-23T01:08:49.691Z,72.80
2019-04-23T01:11:16.819Z,73.00
2019-04-23T01:13:49.163Z,73.90
2019-04-23T01:16:17.799Z,75.10
2019-04-23T01:18:56.245Z,75.10
2019-04-23T01:21:12.007Z,75.80
2019-04-23T01:24:06.429Z,76.30
2019-04-23T01:27:27.011Z,78.00
2019-04-23T01:29:54.588Z,79.50
2019-04-23T01:32:22.280Z,79.90
2019-04-23T01:35:05.362Z,80.90
2019-04-23T01:37:20.667Z,81.70
2019-04-23T01:39:54.467Z,82.40
2019-04-23T01:42:29.032Z,82.60
2019-04-23T01:45:03.357Z,83.60
2019-04-23T01:47:25.071Z,85.90
2019-04-23T01:50:01.880Z,86.70
2019-04-23T01:52:34.949Z,88.10
2019-04-23T01:55:02.986Z,89.00
2019-04-23T01:57:30.638Z,90.10
2019-04-23T02:00:03.188Z,90.70
2019-04-23T02:02:41.152Z,90.70
2019-04-23T02:05:13.540Z,91.40
2019-04-23T02:07:39.968Z,91.40
2019-04-23T02:10:14.606Z,92.30
2019-04-23T02:12:42.225Z,92.50
2019-04-23T02:15:11.508Z,92.90
2019-04-23T02:20:16.123Z,93.70
2019-04-23T02:23:13.628Z,94.00
2019-04-23T02:35:56.266Z,95.40
2019-04-23T02:38:27.315Z,95.60
2019-04-23T02:43:16.741Z,96.30
2019-04-23T02:48:24.763Z,96.50
2019-04-23T02:56:07.641Z,96.60
2019-04-23T02:58:46.074Z,96.90
2019-04-23T03:03:38.291Z,97.00
2019-04-23T03:08:32.487Z,97.60
2019-04-23T03:11:09.851Z,97.60
2019-04-23T03:16:45.928Z,97.90
2019-04-23T03:25:10.294Z,98.20
2019-04-23T03:27:35.475Z,98.60
2019-04-23T03:32:48.433Z,98.80
2019-04-23T03:36:10.835Z,99.00
2019-04-23T03:40:13.878Z,99.40
2019-04-23T03:42:47.612Z,99.80
2019-04-23T03:45:32.490Z,99.40
2019-04-23T03:47:48.561Z,99.70
2019-04-23T03:52:47.060Z,99.90
2019-04-23T03:55:30.258Z,99.90
2019-04-23T04:00:33.180Z,99.90
2019-04-23T04:05:36.109Z,99.90
2019-04-23T04:08:07.395Z,99.90
2019-04-23T04:12:58.442Z,99.90
2019-04-23T04:23:22.661Z,99.90
2019-04-23T04:30:49.255Z,99.90
2019-04-23T04:33:45.994Z,99.90
2019-04-23T04:36:01.023Z,99.90
2019-04-23T04:43:32.204Z,99.90
2019-04-23T04:48:35.116Z,99.90
2019-04-23T04:51:20.734Z,99.90
2019-04-23T04:56:20.318Z,99.90
2019-04-23T04:58:43.277Z,99.90
2019-04-23T05:01:07.636Z,99.90
2019-04-23T05:03:35.834Z,99.90
2019-04-23T05:06:15.583Z,99.90
2019-04-23T05:08:36.842Z,99.90
2019-04-23T05:11:45.506Z,99.90
2019-04-23T05:19:16.122Z,99.90
2019-04-23T05:24:21.820Z,99.90
2019-04-23T05:26:27.513Z,99.90
2019-04-23T05:29:14.587Z,99.90
2019-04-23T05:31:32.588Z,99.90
2019-04-23T05:34:20.990Z,99.90
2019-04-23T05:41:41.527Z,99.90
2019-04-23T05:46:49.084Z,99.90
2019-04-23T05:49:22.481Z,99.90
2019-04-23T05:51:57.460Z,99.90
2019-04-23T05:54:19.043Z,99.90
2019-04-23T05:57:01.800Z,99.90
2019-04-23T05:59:25.878Z,99.90
2019-04-23T06:01:57.376Z,99.90
2019-04-23T06:04:24.837Z,99.90
2019-04-23T06:09:28.341Z,99.90
2019-04-23T06:14:32.743Z,99.90
2019-04-23T06:17:03.880Z,99.90
2019-04-23T06:19:27.668Z,99.90
2019-04-23T06:22:25.268Z,99.90
2019-04-23T06:27:06.721Z,99.90
2019-04-23T06:32:06.377Z,99.90
2019-04-23T06:34:33.955Z,99.90
2019-04-23T06:37:11.028Z,99.90
2019-04-23T06:39:55.513Z,99.90
2019-04-23T06:42:23.333Z,99.90
2019-04-23T06:44:45.424Z,99.90
2019-04-23T06:47:29.822Z,99.90
2019-04-23T06:49:51.702Z,99.90
2019-04-23T06:52:31.864Z,99.90
2019-04-23T06:54:55.741Z,99.90
2019-04-23T06:57:22.661Z,99.90
2019-04-23T06:59:55.218Z,99.90
2019-04-23T07:02:25.847Z,99.90
2019-04-23T07:09:57.931Z,99.90
2019-04-23T07:12:38.903Z,99.90
2019-04-23T07:15:13.358Z,99.90
2019-04-23T07:17:31.902Z,99.90
2019-04-23T07:20:00.275Z,99.90
2019-04-23T07:22:28.502Z,99.90
2019-04-23T07:25:10.161Z,99.90
2019-04-23T07:27:30.324Z,99.90
2019-04-23T07:30:08.708Z,99.90
2019-04-23T07:32:35.981Z,99.90
2019-04-23T07:35:13.684Z,99.90
2019-04-23T07:37:50.178Z,99.90
2019-04-23T07:40:27.421Z,99.90
2019-04-23T07:43:03.277Z,99.90
2019-04-23T07:46:04.216Z,99.90
2019-04-23T07:48:19.257Z,99.90
2019-04-23T07:50:52.064Z,99.10
2019-04-23T07:53:29.627Z,99.70
2019-04-23T07:56:03.700Z,99.50
2019-04-23T07:58:40.093Z,99.50
2019-04-23T08:03:36.556Z,98.70
2019-04-23T08:06:03.455Z,98.80
2019-04-23T08:08:36.467Z,98.90
2019-04-23T08:13:50.389Z,98.10
2019-04-23T08:16:23.370Z,98.40
2019-04-23T08:18:49.768Z,97.70
2019-04-23T08:21:14.665Z,98.40
2019-04-23T08:24:21.165Z,97.70
2019-04-23T08:27:04.511Z,96.70
2019-04-23T08:29:30.417Z,96.60
2019-04-23T08:32:12.299Z,96.30
2019-04-23T08:34:58.495Z,96.20
2019-04-23T08:37:15.436Z,95.90
2019-04-23T08:45:25.605Z,94.30
2019-04-23T08:48:09.307Z,94.30
2019-04-23T08:53:17.770Z,93.90
2019-04-23T08:55:46.335Z,93.50
2019-04-23T08:58:15.108Z,93.60
2019-04-23T09:00:52.247Z,93.90
2019-04-23T09:03:23.126Z,93.20
2019-04-23T09:10:55.943Z,92.00
2019-04-23T09:18:21.302Z,91.10
2019-04-23T09:20:52.957Z,91.10
2019-04-23T09:23:26.353Z,91.00
2019-04-23T09:28:38.505Z,89.80
2019-04-23T09:31:11.668Z,89.60
2019-04-23T09:34:02.733Z,88.90
2019-04-23T09:36:30.722Z,89.80
2019-04-23T09:39:14.091Z,88.80
2019-04-23T09:41:58.903Z,88.40
2019-04-23T09:47:51.846Z,88.50
2019-04-23T09:52:57.545Z,87.00
2019-04-23T09:57:59.152Z,87.00
2019-04-23T10:02:41.645Z,88.20
2019-04-23T10:05:11.242Z,86.30
2019-04-23T10:07:41.875Z,87.70
2019-04-23T10:09:59.637Z,86.40
2019-04-23T10:12:30.240Z,84.00
2019-04-23T10:15:08.082Z,83.40
2019-04-23T10:17:31.937Z,82.00
2019-04-23T10:20:02.679Z,81.00
2019-04-23T10:22:34.482Z,81.20
2019-04-23T10:25:03.663Z,82.70
2019-04-23T10:27:34.962Z,83.00
2019-04-23T10:30:05.956Z,82.60
2019-04-23T10:32:35.845Z,80.80
2019-04-23T10:35:20.795Z,81.30
2019-04-23T10:37:48.162Z,80.90
2019-04-23T10:40:17.230Z,81.40
2019-04-23T10:42:43.985Z,80.40
2019-04-23T10:45:41.384Z,79.90
2019-04-23T10:48:47.665Z,78.20
2019-04-23T10:51:15.752Z,79.10
2019-04-23T10:54:18.198Z,78.90
2019-04-23T10:56:42.531Z,76.80
2019-04-23T10:59:28.695Z,76.00
2019-04-23T11:02:15.623Z,76.70
2019-04-23T11:07:10.122Z,75.10
2019-04-23T11:09:50.162Z,75.10
2019-04-23T11:12:39.230Z,76.00
2019-04-23T11:17:45.887Z,75.10
2019-04-23T11:20:25.810Z,75.50
2019-04-23T11:22:45.077Z,74.90
2019-04-23T11:25:28.001Z,73.40
2019-04-23T11:27:52.543Z,74.00
2019-04-23T11:33:10.129Z,73.20
2019-04-23T11:38:08.812Z,72.80
2019-04-23T11:40:25.474Z,70.70
2019-04-23T11:43:06.167Z,72.50
2019-04-23T11:45:34.928Z,71.50
2019-04-23T11:52:57.092Z,71.20
2019-04-23T11:55:41.066Z,69.50
2019-04-23T12:00:44.730Z,70.20
2019-04-23T12:03:07.657Z,69.00
2019-04-23T12:06:15.203Z,68.90
2019-04-23T12:09:09.710Z,68.60
2019-04-23T12:11:52.709Z,67.30
2019-04-23T12:14:37.483Z,68.50
2019-04-23T12:19:52.917Z,66.90
2019-04-23T12:22:01.545Z,66.00
2019-04-23T12:32:37.450Z,66.20
2019-04-23T12:40:19.176Z,66.20
2019-04-23T12:42:57.008Z,63.90
2019-04-23T12:45:21.712Z,66.20
2019-04-23T12:47:53.623Z,64.30
2019-04-23T12:50:41.738Z,63.10
2019-04-23T12:52:46.845Z,63.90
2019-04-23T12:55:22.379Z,62.30
2019-04-23T12:57:46.932Z,59.90
2019-04-23T13:00:20.919Z,59.80
2019-04-23T13:03:02.588Z,59.20
2019-04-23T13:07:52.203Z,60.30
2019-04-23T13:10:28.300Z,59.80
2019-04-23T13:13:09.337Z,58.90
2019-04-23T13:20:32.084Z,57.20
2019-04-23T13:23:08.580Z,58.60
2019-04-23T13:25:54.181Z,57.70
2019-04-23T13:33:36.201Z,57.70
2019-04-23T13:38:35.522Z,56.20
2019-04-23T13:46:09.940Z,56.30
2019-04-23T13:48:24.783Z,55.00
2019-04-23T13:51:06.985Z,55.00
2019-04-23T13:56:15.214Z,54.30
2019-04-23T14:16:35.753Z,52.60
2019-04-23T14:18:59.131Z,52.10
2019-04-23T14:21:34.501Z,51.90
2019-04-23T14:26:29.544Z,51.50
2019-04-23T14:31:37.057Z,50.80
2019-04-23T14:46:50.209Z,49.60
2019-04-23T14:49:19.092Z,50.70
2019-04-23T14:51:49.928Z,50.60
2019-04-23T14:54:34.547Z,49.60
2019-04-23T14:56:59.259Z,48.80
2019-04-23T14:59:13.434Z,50.20
2019-04-23T15:02:04.372Z,50.00
2019-04-23T15:04:36.302Z,50.10
2019-04-23T15:09:34.204Z,50.60
2019-04-23T15:12:11.854Z,50.30
2019-04-23T15:14:45.753Z,49.90
2019-04-23T15:17:07.697Z,50.10
2019-04-23T15:20:01.925Z,50.30
2019-04-23T15:25:06.978Z,49.40
2019-04-23T15:29:48.233Z,49.50
2019-04-23T15:32:34.910Z,49.60
2019-04-23T15:35:11.629Z,50.00
2019-04-23T15:47:45.323Z,49.10
2019-04-23T15:52:44.154Z,49.60
2019-04-23T15:55:06.022Z,49.90
2019-04-23T16:00:25.952Z,50.90
2019-04-23T16:02:15.594Z,50.00
2019-04-23T16:04:45.016Z,50.00
2019-04-23T16:07:32.623Z,50.10
2019-04-23T16:10:17.810Z,49.80
2019-04-23T16:12:53.446Z,50.10
2019-04-23T16:15:13.220Z,50.80
2019-04-23T16:18:09.496Z,50.90
2019-04-23T16:20:40.873Z,50.70
2019-04-23T16:22:55.367Z,51.70
2019-04-23T16:25:28.098Z,51.90
2019-04-23T16:28:03.623Z,52.20
2019-04-23T16:30:32.938Z,52.20
2019-04-23T16:36:05.349Z,52.30
2019-04-23T16:38:44.560Z,52.70
2019-04-23T16:41:05.518Z,52.50
2019-04-23T16:43:35.357Z,53.10
2019-04-23T16:46:07.541Z,53.20
2019-04-23T16:51:24.542Z,54.00
2019-04-23T16:53:56.445Z,54.00
2019-04-23T17:01:19.596Z,54.50
2019-04-23T17:03:46.619Z,55.00
2019-04-23T17:11:18.601Z,54.90
2019-04-23T17:13:48.552Z,55.80
2019-04-23T17:16:23.488Z,55.60
2019-04-23T17:18:56.222Z,56.00
2019-04-23T17:21:24.182Z,55.50
2019-04-23T17:24:04.161Z,55.30
2019-04-23T17:26:26.161Z,56.30
2019-04-23T17:29:00.060Z,56.10
2019-04-23T17:34:12.893Z,56.50
2019-04-23T17:39:41.216Z,56.70
2019-04-23T17:45:06.369Z,57.10
2019-04-23T17:47:41.225Z,57.80
2019-04-23T17:50:23.130Z,57.90
2019-04-23T17:52:50.031Z,57.90
2019-04-23T17:55:15.002Z,58.30
2019-04-23T18:00:32.945Z,58.70
2019-04-23T18:03:02.772Z,58.90
2019-04-23T18:05:33.286Z,58.80
2019-04-23T18:08:05.375Z,59.00
2019-04-23T18:13:04.388Z,59.80
2019-04-23T18:15:40.698Z,59.90
2019-04-23T18:17:59.867Z,60.30
2019-04-23T18:21:03.497Z,60.30
2019-04-23T18:23:32.373Z,60.80
2019-04-23T18:26:08.369Z,60.90
2019-04-23T18:28:37.213Z,60.90
2019-04-23T18:34:05.525Z,62.10
2019-04-23T18:36:19.690Z,62.60
2019-04-23T18:38:53.075Z,62.80
2019-04-23T18:41:18.082Z,63.10
2019-04-23T18:43:59.233Z,63.30
2019-04-23T18:46:32.010Z,63.40
2019-04-23T18:48:54.600Z,63.60
2019-04-23T18:51:34.481Z,64.00
2019-04-23T18:54:15.241Z,64.70
2019-04-23T18:56:45.625Z,64.50
2019-04-23T19:02:08.044Z,65.20
2019-04-23T19:04:58.937Z,65.10
2019-04-23T19:07:57.123Z,65.90
2019-04-23T19:10:29.443Z,66.10
2019-04-23T19:13:14.140Z,65.90
2019-04-23T19:15:38.016Z,66.20
2019-04-23T19:18:03.983Z,66.10
2019-04-23T19:20:53.836Z,66.50
2019-04-23T19:23:16.308Z,66.70
2019-04-23T19:25:45.457Z,67.00
2019-04-23T19:31:14.797Z,67.70
2019-04-23T19:34:05.879Z,67.40
2019-04-23T19:36:39.671Z,68.70
2019-04-23T19:39:09.238Z,68.10
2019-04-23T19:41:54.308Z,68.00
2019-04-23T19:46:48.965Z,69.20
2019-04-23T19:49:09.915Z,69.20
2019-04-23T19:51:44.313Z,69.20
2019-04-23T19:54:20.134Z,69.50
2019-04-23T19:56:49.770Z,69.80
2019-04-23T19:59:15.988Z,70.40
2019-04-23T20:01:46.883Z,70.40
2019-04-23T20:04:16.393Z,70.70
2019-04-23T20:07:06.044Z,71.70
2019-04-23T20:09:37.364Z,71.30
2019-04-23T20:14:24.105Z,71.90
2019-04-23T20:19:30.062Z,71.70
2019-04-23T20:27:19.553Z,72.80
2019-04-23T20:35:33.189Z,73.80
2019-04-23T20:43:05.749Z,74.30
2019-04-23T20:45:46.534Z,74.30
2019-04-23T20:48:14.148Z,74.70
2019-04-23T20:50:44.541Z,75.00
2019-04-23T20:53:17.908Z,75.20
2019-04-23T21:01:22.258Z,75.70
2019-04-23T21:03:51.994Z,75.90
2019-04-23T21:06:19.544Z,76.20
2019-04-23T21:09:17.235Z,76.50
2019-04-23T21:11:12.678Z,77.10
2019-04-23T21:16:24.969Z,77.30
2019-04-23T21:18:49.895Z,78.00
2019-04-23T21:21:25.938Z,78.00
2019-04-23T21:26:25.127Z,78.60
2019-04-23T21:29:00.572Z,79.10
2019-04-23T21:31:40.389Z,79.10
2019-04-23T21:34:12.221Z,79.50
2019-04-23T21:37:06.250Z,79.60
2019-04-23T21:40:33.324Z,80.00
2019-04-23T21:42:57.615Z,81.50
2019-04-23T21:45:19.742Z,82.00
2019-04-23T21:50:27.588Z,82.70
2019-04-23T21:52:56.393Z,83.00
2019-04-23T21:55:37.064Z,84.00
2019-04-23T21:58:04.570Z,84.60
2019-04-23T22:00:28.039Z,84.70
2019-04-23T22:03:02.464Z,85.20
2019-04-23T22:05:39.919Z,85.40
2019-04-23T22:08:03.493Z,86.10
2019-04-23T22:10:25.590Z,86.50
2019-04-23T22:13:19.784Z,87.30
2019-04-23T22:15:45.165Z,87.90
2019-04-23T22:17:59.374Z,89.10
2019-04-23T22:23:10.752Z,90.30
2019-04-23T22:25:50.187Z,90.70
2019-04-23T22:28:10.184Z,91.10
2019-04-23T22:30:50.331Z,91.50
2019-04-23T22:33:17.719Z,92.20
2019-04-23T22:35:49.726Z,92.60
2019-04-23T22:38:25.942Z,93.20
2019-04-23T22:40:49.919Z,93.60
2019-04-23T22:43:20.605Z,94.10
2019-04-23T22:48:13.873Z,94.70
2019-04-23T22:51:06.964Z,94.90
2019-04-23T22:53:15.249Z,95.30
2019-04-23T22:55:57.037Z,95.60
2019-04-23T22:58:22.268Z,96.20
2019-04-23T23:01:19.740Z,96.60
2019-04-23T23:03:51.334Z,96.60
2019-04-23T23:06:26.005Z,97.30
2019-04-23T23:08:59.875Z,97.50
2019-04-23T23:11:14.112Z,97.50
2019-04-23T23:16:21.468Z,97.90
2019-04-23T23:19:03.948Z,98.00
2019-04-23T23:21:31.258Z,98.10
2019-04-23T23:23:59.457Z,98.40
2019-04-23T23:26:38.266Z,98.50
2019-04-23T23:29:00.741Z,99.00
2019-04-23T23:31:30.176Z,99.40
2019-04-23T23:34:02.804Z,99.40
2019-04-23T23:36:38.975Z,99.70
2019-04-23T23:39:19.684Z,99.60
2019-04-23T23:41:40.472Z,99.90
2019-04-23T23:44:28.132Z,99.90
2019-04-23T23:46:53.977Z,99.90
2019-04-23T23:49:14.097Z,99.90
2019-04-23T23:51:47.560Z,99.90
2019-04-23T23:54:13.637Z,99.90
2019-04-23T23:56:56.476Z,99.90
